• Join FlightAware (Why Join?)
  • Login
  • US Flag 
12:38PM EDT


 

Airport Tracker/Info


-or-


 

Live Flight TrackerFlight Track Log ✈ FAB867 ✈ 01-May-2013 ✈ CYVP - CYUL

Flight Track Log - Related Links

Times and Time Zones

All times are in EDT time to prevent confusion due to time zone crossing. See the FAB867 flight status page for this flight to view local times or setup timezone preferences in your user account.

Time Position Orientation Groundspeed Altitude Reporting Facility
EDT Latitude Longitude Course Direction KTS MPH feet Rate Location/Type
04:43PM 58.0500 -68.4500 208° Southwest 170 196 3,600  Level Montreal Center
04:44PM 57.9833 -68.4667 188° South 230 265 5,800 2,940 Climbing Montreal Center
04:45PM 57.9167 -68.5167 202° Southwest 240 276 9,500 2,820 Climbing Montreal Center
04:46PM 57.8500 -68.5500 195° South 260 299 11,500 2,400 Climbing Montreal Center
04:47PM 57.7667 -68.6000 198° South 310 357 14,300 3,000 Climbing Montreal Center
04:48PM 57.6833 -68.6833 208° Southwest 320 368 17,500 2,700 Climbing Montreal Center
04:49PM 57.6000 -68.7333 198° South 330 380 19,700 2,160 Climbing Montreal Center
04:50PM 57.5167 -68.8167 208° Southwest 340 391 21,900 1,920 Climbing Montreal Center
04:51PM 57.4167 -68.8667 195° South 350 403 23,600 1,800 Climbing Montreal Center
04:52PM 57.3000 -68.9500 201° Southwest 370 426 25,500 1,920 Climbing Montreal Center
04:53PM 57.2000 -69.0000 195° South 380 437 27,500 1,500 Climbing Montreal Center
04:54PM 57.1000 -69.0833 204° Southwest 390 449 28,500 1,200 Climbing Montreal Center
04:55PM 57.0000 -69.1667 204° Southwest 400 460 29,900 1,200 Climbing Montreal Center
04:56PM 56.9000 -69.2000 190° South 410 472 31,000 1,020 Climbing Montreal Center
04:57PM 56.7833 -69.2833 201° Southwest 410 472 32,000 480 Climbing Montreal Center
04:58PM 56.6833 -69.3667 205° Southwest 410 472 32,000  Level Montreal Center
04:59PM 56.5667 -69.4167 193° South 410 472 32,000  Level Montreal Center
05:00PM 56.4667 -69.5000 205° Southwest 410 472 32,000  Level Montreal Center
05:01PM 56.3500 -69.5833 202° Southwest 410 472 32,000  Level Montreal Center
05:02PM 56.2500 -69.6500 200° South 410 472 32,000  Level Montreal Center
05:03PM 56.1500 -69.7000 196° South 410 472 32,000  Level Montreal Center
05:04PM 56.0333 -69.7833 202° Southwest 410 472 32,000  Level Montreal Center
05:05PM 55.9167 -69.8667 202° Southwest 410 472 32,000  Level Montreal Center
05:06PM 55.8000 -69.9333 198° South 410 472 32,000  Level Montreal Center
05:07PM 55.7000 -69.9833 196° South 410 472 32,000  Level Montreal Center
05:08PM 55.5833 -70.0667 202° Southwest 410 472 32,000  Level Montreal Center
05:09PM 55.4833 -70.1333 201° Southwest 410 472 32,000  Level Montreal Center
05:10PM 55.3833 -70.1833 196° South 410 472 32,000  Level Montreal Center
05:11PM 55.2667 -70.2500 198° South 410 472 32,000  Level Montreal Center
05:12PM 55.1667 -70.3333 205° Southwest 410 472 32,000  Level Montreal Center
05:13PM 55.0500 -70.3833 194° South 410 472 32,000  Level Montreal Center
05:14PM 54.9500 -70.4500 201° Southwest 410 472 32,000  Level Montreal Center
05:15PM 54.8333 -70.5167 198° South 400 460 32,000  Level Montreal Center
05:16PM 54.7167 -70.5667 194° South 410 472 32,000  Level Montreal Center
05:17PM 54.6167 -70.6333 201° Southwest 410 472 32,000  Level Montreal Center
05:18PM 54.5000 -70.7167 203° Southwest 410 472 32,000  Level Montreal Center
05:19PM 54.3833 -70.7833 198° South 430 495 32,000  Level Montreal Center
05:20PM 54.2667 -70.8333 194° South 420 483 32,000  Level Montreal Center
05:21PM 54.1833 -70.9000 205° Southwest 420 483 32,000  Level Montreal Center
05:22PM 54.0667 -70.9667 199° South 420 483 32,000  Level Montreal Center
05:23PM 53.9500 -71.0333 199° South 430 495 32,000  Level Montreal Center
05:24PM 53.8333 -71.0833 194° South 430 495 32,000  Level Montreal Center
05:25PM 53.7167 -71.1500 199° South 430 495 32,000  Level Montreal Center
05:26PM 53.6000 -71.2167 199° South 430 495 32,000  Level Montreal Center
05:27PM 53.4833 -71.3000 203° Southwest 430 495 32,000  Level Montreal Center
05:28PM 53.3833 -71.3667 202° Southwest 430 495 32,000  Level Montreal Center
05:29PM 53.2500 -71.4000 189° South 430 495 32,000  Level Montreal Center
05:30PM 53.1333 -71.4667 199° South 430 495 32,000  Level Montreal Center
05:31PM 53.0167 -71.5333 199° South 430 495 32,000  Level Montreal Center
05:32PM 52.9000 -71.6000 199° South 430 495 32,000  Level Montreal Center
05:33PM 52.8000 -71.6667 202° Southwest 430 495 32,000  Level Montreal Center
05:34PM 52.6833 -71.7167 195° South 430 495 32,000  Level Montreal Center
05:35PM 52.5833 -71.7833 202° Southwest 430 495 32,000  Level Montreal Center
05:36PM 52.4667 -71.8500 199° South 430 495 32,000  Level Montreal Center
05:37PM 52.3500 -71.9167 199° South 430 495 32,000  Level Montreal Center
05:38PM 52.2333 -71.9833 199° South 430 495 32,000  Level Montreal Center
05:39PM 52.1167 -72.0167 190° South 440 506 32,000  Level Montreal Center
05:40PM 52.0000 -72.0833 199° South 430 495 32,000  Level Montreal Center
05:41PM 51.8667 -72.1500 197° South 430 495 32,000  Level Montreal Center
05:42PM 51.7667 -72.2167 202° Southwest 440 506 32,000  Level Montreal Center
05:43PM 51.6333 -72.2833 197° South 440 506 32,000  Level Montreal Center
05:44PM 51.5167 -72.3167 190° South 440 506 32,000  Level Montreal Center
05:45PM 51.4000 -72.3833 200° South 440 506 32,000  Level Montreal Center
05:46PM 51.2833 -72.4333 195° South 440 506 32,000  Level Montreal Center
05:47PM 51.1667 -72.5000 200° South 440 506 32,000  Level Montreal Center
05:48PM 51.0500 -72.5667 200° South 440 506 32,000  Level Montreal Center
05:49PM 50.9333 -72.6333 200° South 450 518 32,000  Level Montreal Center
05:50PM 50.8000 -72.6833 193° South 450 518 32,000  Level Montreal Center
05:51PM 50.6833 -72.7167 190° South 450 518 32,000  Level Montreal Center
05:52PM 50.5667 -72.7833 200° South 450 518 32,000  Level Montreal Center
05:53PM 50.4500 -72.8500 200° South 440 506 32,000  Level Montreal Center
05:54PM 50.3333 -72.9000 195° South 450 518 32,000  Level Montreal Center
05:55PM 50.2000 -72.9667 198° South 450 518 32,000  Level Montreal Center
05:56PM 50.0833 -73.0333 200° South 450 518 32,000  Level Montreal Center
05:57PM 49.9667 -73.0833 195° South 450 518 32,000  Level Montreal Center
05:58PM 49.8500 -73.1167 190° South 450 518 32,000  Level Montreal Center
05:59PM 49.7167 -73.1833 198° South 450 518 32,000  Level Montreal Center
06:00PM 49.6000 -73.2333 196° South 450 518 32,000  Level Montreal Center
06:01PM 49.4833 -73.3000 200° South 450 518 32,000  Level Montreal Center
06:02PM 49.3667 -73.3500 196° South 450 518 32,000  Level Montreal Center
06:03PM 49.2500 -73.4167 200° South 450 518 32,000  Level Montreal Center
06:04PM 49.1167 -73.4667 194° South 450 518 32,000  Level Montreal Center
06:05PM 49.0000 -73.5333 201° Southwest 450 518 32,000  Level Montreal Center
06:06PM 48.8833 -73.5833 196° South 450 518 32,000  Level Montreal Center
06:07PM 48.7667 -73.6167 191° South 450 518 32,000  Level Montreal Center
06:08PM 48.6500 -73.6833 201° Southwest 450 518 32,000  Level Montreal Center
06:09PM 48.5167 -73.7333 194° South 450 518 32,000  Level Montreal Center
06:10PM 48.4000 -73.7833 196° South 450 518 32,000  Level Montreal Center
06:11PM 48.2833 -73.8500 201° Southwest 450 518 32,000  Level Montreal Center
06:12PM 48.1667 -73.9000 196° South 450 518 32,000  Level Montreal Center
06:13PM 48.0333 -73.9500 194° South 450 518 32,000  Level Montreal Center
06:14PM 47.9167 -74.0167 201° Southwest 450 518 32,000  Level Montreal Center
06:15PM 47.7833 -74.0667 194° South 450 518 32,000  Level Montreal Center
06:16PM 47.6667 -74.1000 178° South 450 518 32,000  Level Montreal Center
06:17PM 47.6714 -74.0601 178° South  Level FlightAware Approximate
06:17PM 47.5500 -74.1500 196° South 460 529 32,000  Level Montreal Center
06:18PM 47.4333 -74.2000 196° South 450 518 32,000  Level Montreal Center
06:19PM 47.3000 -74.2667 199° South 460 529 32,000  Level Montreal Center
06:20PM 47.1833 -74.3167 196° South 460 529 32,000  Level Montreal Center
06:21PM 47.0500 -74.3667 194° South 460 529 32,000  Level Montreal Center
06:22PM 46.9333 -74.4000 191° South 460 529 32,000 -600 Level Montreal Center
06:23PM 46.8000 -74.4167 185° South 460 529 30,900 -2,100 Descending Montreal Center
06:24PM 46.6667 -74.4333 185° South 460 529 27,800 -2,640 Descending Montreal Center
06:25PM 46.5500 -74.4333 180° South 440 506 25,700 -2,400 Descending Montreal Center
06:26PM 46.4333 -74.4667 191° South 420 483 23,000 -2,580 Descending Montreal Center
06:27PM 46.3333 -74.4667 180° South 410 472 20,600 -2,220 Descending Montreal Center
06:28PM 46.2167 -74.4667 180° South 390 449 18,600 -2,100 Descending Montreal Center
06:29PM 46.1167 -74.5000 193° South 380 437 16,500 -2,100 Descending Montreal Center
06:30PM 46.0167 -74.4667 167° South 370 426 14,500 -2,100 Descending Montreal Center
06:31PM 45.9333 -74.3833 145° Southeast 350 403 12,400 -1,860 Descending Montreal Center
06:32PM 45.8667 -74.2833 134° Southeast 340 391 10,800 -1,380 Descending Montreal Center
06:33PM 45.8000 -74.2167 145° Southeast 300 345 9,700 -1,080 Descending Montreal Center
06:34PM 45.7500 -74.1500 137° Southeast 290 334 8,700 -1,020 Descending Montreal Center
06:35PM 45.7000 -74.0167 118° Southeast 290 334 7,700 -900 Descending Montreal Center
06:36PM 45.6500 -73.9333 131° Southeast 280 322 6,900 -900 Descending Montreal Center
06:37PM 45.6167 -73.8333 115° Southeast 270 311 6,000 -600 Descending Montreal Center
06:38PM 45.6000 -73.7667 110° East 240 276 5,800 -600 Descending Montreal Center
06:39PM 45.6333 -73.6833 60° Northeast 220 253 4,800 -1,200 Descending Montreal Center
06:40PM 45.6333 -73.6167 90° East 210 242 3,500 -900 Descending Montreal Center
06:41PM 45.5833 -73.5667 145° Southeast 190 219 3,000 -720 Descending Montreal Center
06:42PM 45.5500 -73.6167 226° Southwest 180 207 2,100 -900 Descending Montreal Center
06:43PM 45.5167 -73.6667 226° Southwest 170 196 1,300 -840 Descending Montreal Center
06:44PM 45.4833 -73.7000 215° Southwest 130 150 500 -600 Descending Montreal Center
06:45PM 45.4667 -73.7500 245° Southwest 100 115 100 -420 Descending Montreal Center